createdAt,value
2022-12-15T00:00:59.837Z,11.42
2022-12-15T00:03:26.450Z,11.41
2022-12-15T00:05:52.800Z,11.40
2022-12-15T00:08:19.033Z,11.39
2022-12-15T00:10:45.535Z,11.38
2022-12-15T00:13:12.186Z,11.36
2022-12-15T00:15:38.611Z,11.37
2022-12-15T00:18:04.955Z,11.36
2022-12-15T00:20:31.201Z,11.36
2022-12-15T00:22:57.512Z,11.36
2022-12-15T00:25:23.875Z,11.36
2022-12-15T00:27:50.265Z,11.34
2022-12-15T00:30:16.570Z,11.33
2022-12-15T00:32:42.943Z,11.33
2022-12-15T00:35:09.406Z,11.34
2022-12-15T00:37:35.662Z,11.33
2022-12-15T00:40:01.941Z,11.32
2022-12-15T00:42:28.205Z,11.32
2022-12-15T00:44:54.692Z,11.32
2022-12-15T00:47:20.966Z,11.31
2022-12-15T00:49:47.304Z,11.31
2022-12-15T00:52:13.601Z,11.29
2022-12-15T00:54:39.904Z,11.29
2022-12-15T00:57:06.258Z,11.27
2022-12-15T00:59:32.579Z,11.27
2022-12-15T01:01:59.065Z,11.26
2022-12-15T01:04:25.565Z,11.25
2022-12-15T01:06:51.853Z,11.24
2022-12-15T01:09:18.159Z,11.24
2022-12-15T01:11:44.545Z,11.23
2022-12-15T01:14:10.782Z,11.22
2022-12-15T01:16:37.178Z,11.23
2022-12-15T01:19:03.506Z,11.22
2022-12-15T01:21:29.855Z,11.23
2022-12-15T01:23:56.087Z,11.20
2022-12-15T01:26:22.459Z,11.21
2022-12-15T01:28:48.816Z,11.20
2022-12-15T01:31:15.275Z,11.21
2022-12-15T01:33:41.605Z,11.20
2022-12-15T01:36:07.909Z,11.18
2022-12-15T01:38:34.239Z,11.18
2022-12-15T01:41:00.555Z,11.16
2022-12-15T01:43:26.943Z,11.17
2022-12-15T01:45:53.316Z,11.16
2022-12-15T01:48:19.646Z,11.15
2022-12-15T01:50:45.947Z,11.13
2022-12-15T01:53:12.385Z,11.14
2022-12-15T01:55:38.686Z,11.15
2022-12-15T01:58:05.124Z,11.16
2022-12-15T02:00:31.416Z,11.14
2022-12-15T02:02:58.132Z,11.13
2022-12-15T02:05:24.747Z,11.12
2022-12-15T02:07:51.139Z,11.12
2022-12-15T02:10:17.527Z,11.10
2022-12-15T02:12:43.903Z,11.09
2022-12-15T02:15:10.289Z,11.10
2022-12-15T02:17:36.677Z,11.10
2022-12-15T02:20:03.038Z,11.07
2022-12-15T02:22:29.318Z,11.09
2022-12-15T02:24:55.593Z,11.08
2022-12-15T02:27:22.030Z,11.06
2022-12-15T02:29:48.468Z,11.06
2022-12-15T02:32:14.783Z,11.06
2022-12-15T02:34:41.130Z,11.04
2022-12-15T02:37:07.411Z,11.04
2022-12-15T02:39:33.750Z,11.05
2022-12-15T02:42:00.079Z,11.04
2022-12-15T02:44:26.348Z,11.04
2022-12-15T02:46:52.648Z,11.05
2022-12-15T02:49:18.911Z,11.03
2022-12-15T02:51:45.274Z,11.01
2022-12-15T02:54:11.529Z,11.02
2022-12-15T02:56:37.888Z,11.01
2022-12-15T02:59:04.252Z,11.00
2022-12-15T03:01:30.707Z,11.00
2022-12-15T03:03:57.274Z,10.99
2022-12-15T03:06:23.642Z,10.99
2022-12-15T03:08:49.913Z,10.99
2022-12-15T03:11:16.210Z,10.98
2022-12-15T03:13:42.627Z,10.97
2022-12-15T03:16:08.930Z,10.97
2022-12-15T03:18:35.246Z,10.96
2022-12-15T03:21:01.544Z,10.96
2022-12-15T03:23:28.072Z,10.94
2022-12-15T03:25:54.764Z,10.94
2022-12-15T03:28:21.146Z,10.95
2022-12-15T03:30:50.390Z,10.95
2022-12-15T03:33:17.083Z,10.95
2022-12-15T03:35:43.327Z,10.94
2022-12-15T03:38:10.148Z,10.93
2022-12-15T03:40:36.568Z,10.92
2022-12-15T03:43:03.056Z,10.91
2022-12-15T03:45:29.609Z,10.91
2022-12-15T03:47:56.245Z,10.92
2022-12-15T03:50:22.536Z,10.91
2022-12-15T03:52:49.156Z,10.91
2022-12-15T03:55:15.470Z,10.90
2022-12-15T03:57:41.798Z,10.88
2022-12-15T04:00:08.058Z,10.89
2022-12-15T04:02:34.470Z,10.88
2022-12-15T04:05:00.978Z,10.88
2022-12-15T04:07:27.316Z,10.87
2022-12-15T04:09:53.857Z,10.86
2022-12-15T04:12:20.099Z,10.88
2022-12-15T04:14:46.378Z,10.88
2022-12-15T04:17:15.996Z,10.88
2022-12-15T04:19:42.514Z,10.84
2022-12-15T04:22:11.553Z,10.85
2022-12-15T04:24:40.124Z,10.83
2022-12-15T04:27:06.388Z,10.82
2022-12-15T04:29:32.711Z,10.82
2022-12-15T04:31:59.030Z,10.83
2022-12-15T04:34:25.391Z,10.82
2022-12-15T04:36:51.762Z,10.81
2022-12-15T04:39:18.114Z,10.80
2022-12-15T04:41:44.525Z,10.78
2022-12-15T04:44:10.848Z,10.78
2022-12-15T04:46:37.264Z,10.78
2022-12-15T04:49:03.639Z,10.78
2022-12-15T04:51:29.948Z,10.75
2022-12-15T04:53:56.258Z,10.75
2022-12-15T04:56:22.505Z,10.74
2022-12-15T04:58:48.882Z,10.74
2022-12-15T05:01:15.254Z,10.74
2022-12-15T05:03:41.569Z,10.73
2022-12-15T05:06:07.985Z,10.74
2022-12-15T05:08:34.459Z,10.72
2022-12-15T05:11:00.753Z,10.71
2022-12-15T05:13:27.299Z,10.71
2022-12-15T05:15:53.678Z,10.71
2022-12-15T05:18:20.041Z,10.71
2022-12-15T05:20:46.272Z,10.72
2022-12-15T05:23:16.680Z,10.70
2022-12-15T05:25:42.979Z,10.69
2022-12-15T05:28:09.290Z,10.69
2022-12-15T05:30:35.715Z,10.69
2022-12-15T05:33:02.060Z,10.69
2022-12-15T05:35:28.431Z,10.67
2022-12-15T05:37:54.764Z,10.67
2022-12-15T05:40:21.211Z,10.68
2022-12-15T05:42:50.224Z,10.66
2022-12-15T05:45:16.732Z,10.67
2022-12-15T05:47:43.116Z,10.67
2022-12-15T05:50:09.593Z,10.66
2022-12-15T05:52:35.893Z,10.64
2022-12-15T05:55:02.156Z,10.62
2022-12-15T05:57:28.495Z,10.63
2022-12-15T05:59:54.799Z,10.61
2022-12-15T06:02:21.084Z,10.63
2022-12-15T06:04:47.592Z,10.63
2022-12-15T06:07:14.035Z,10.64
2022-12-15T06:09:40.304Z,10.63
2022-12-15T06:12:06.602Z,10.62
2022-12-15T06:14:32.934Z,10.60
2022-12-15T06:16:59.314Z,10.61
2022-12-15T06:19:25.727Z,10.59
2022-12-15T06:21:52.063Z,10.60
2022-12-15T06:24:18.345Z,10.58
2022-12-15T06:26:44.743Z,10.58
2022-12-15T06:29:11.149Z,10.58
2022-12-15T06:31:37.468Z,10.57
2022-12-15T06:34:03.799Z,10.56
2022-12-15T06:36:30.144Z,10.58
2022-12-15T06:38:56.670Z,10.56
2022-12-15T06:41:23.065Z,10.55
2022-12-15T06:43:49.553Z,10.54
2022-12-15T06:46:16.158Z,10.54
2022-12-15T06:48:42.645Z,10.54
2022-12-15T06:51:16.396Z,10.55
2022-12-15T06:53:43.512Z,10.55
2022-12-15T06:56:09.752Z,10.53
2022-12-15T06:58:36.202Z,10.51
2022-12-15T07:01:02.507Z,10.52
2022-12-15T07:03:29.101Z,10.51
2022-12-15T07:05:55.760Z,10.50
2022-12-15T07:08:27.050Z,10.50
2022-12-15T07:10:56.663Z,10.50
2022-12-15T07:13:22.975Z,10.50
2022-12-15T07:15:49.472Z,10.49
2022-12-15T07:18:16.248Z,10.47
2022-12-15T07:20:42.595Z,10.47
2022-12-15T07:23:08.871Z,10.45
2022-12-15T07:25:35.130Z,10.47
2022-12-15T07:28:01.900Z,10.46
2022-12-15T07:30:29.584Z,10.47
2022-12-15T07:32:57.717Z,10.46
2022-12-15T07:35:24.149Z,10.46
2022-12-15T07:37:50.556Z,10.46
2022-12-15T07:40:16.828Z,10.45
2022-12-15T07:42:43.302Z,10.45
2022-12-15T07:45:09.624Z,10.45
2022-12-15T07:47:36.846Z,10.44
2022-12-15T07:50:03.291Z,10.43
2022-12-15T07:52:29.537Z,10.43
2022-12-15T07:54:55.923Z,10.44
2022-12-15T07:57:22.255Z,10.44
2022-12-15T07:59:48.573Z,10.44
2022-12-15T08:02:15.215Z,10.43
2022-12-15T08:04:41.762Z,10.42
2022-12-15T08:07:08.170Z,10.42
2022-12-15T08:09:34.487Z,10.42
2022-12-15T08:12:00.896Z,10.42
2022-12-15T08:14:27.240Z,10.41
2022-12-15T08:16:53.570Z,10.41
2022-12-15T08:19:19.964Z,10.38
2022-12-15T08:21:46.315Z,10.39
2022-12-15T08:24:12.601Z,10.37
2022-12-15T08:26:39.045Z,10.37
2022-12-15T08:34:22.609Z,10.35
2022-12-15T08:36:48.932Z,10.36
2022-12-15T08:39:15.432Z,10.36
2022-12-15T08:41:41.699Z,10.35
2022-12-15T08:44:08.116Z,10.37
2022-12-15T08:46:34.493Z,10.39
2022-12-15T08:49:00.937Z,10.42
2022-12-15T08:51:27.284Z,10.42
2022-12-15T08:53:53.682Z,10.41
2022-12-15T08:56:20.044Z,10.42
2022-12-15T08:58:46.560Z,10.39
2022-12-15T09:01:16.081Z,10.44
2022-12-15T09:03:47.146Z,10.48
2022-12-15T09:06:13.419Z,10.52
2022-12-15T09:08:39.722Z,10.56
2022-12-15T09:11:06.108Z,10.60
2022-12-15T09:13:32.804Z,10.66
2022-12-15T09:16:09.476Z,10.69
2022-12-15T09:18:36.908Z,10.73
2022-12-15T09:21:03.196Z,10.78
2022-12-15T09:23:29.909Z,10.82
2022-12-15T09:25:56.541Z,10.86
2022-12-15T09:28:22.871Z,10.88
2022-12-15T09:30:49.240Z,10.92
2022-12-15T09:33:15.482Z,10.95
2022-12-15T09:35:41.764Z,10.95
2022-12-15T09:38:08.032Z,10.97
2022-12-15T09:40:34.518Z,10.98
2022-12-15T09:43:32.718Z,10.99
2022-12-15T09:45:47.259Z,10.98
2022-12-15T09:48:13.589Z,11.00
2022-12-15T09:50:39.981Z,10.99
2022-12-15T09:53:23.138Z,11.00
2022-12-15T09:55:52.517Z,11.03
2022-12-15T09:58:19.297Z,11.02
2022-12-15T10:00:45.690Z,11.03
2022-12-15T10:08:18.642Z,11.00
2022-12-15T10:13:24.655Z,10.99
2022-12-15T10:15:51.033Z,10.98
2022-12-15T10:18:17.898Z,10.99
2022-12-15T10:20:44.311Z,10.99
2022-12-15T10:23:14.877Z,11.00
2022-12-15T10:25:41.901Z,11.02
2022-12-15T10:28:08.240Z,10.99
2022-12-15T10:30:37.760Z,10.97
2022-12-15T10:33:04.191Z,11.00
2022-12-15T10:35:30.589Z,11.00
2022-12-15T10:37:57.018Z,11.03
2022-12-15T10:40:23.379Z,11.04
2022-12-15T10:42:49.820Z,11.02
2022-12-15T10:45:16.581Z,10.98
2022-12-15T10:47:43.031Z,10.95
2022-12-15T10:50:09.730Z,10.95
2022-12-15T10:52:36.164Z,10.96
2022-12-15T10:55:02.449Z,10.99
2022-12-15T10:57:28.716Z,11.01
2022-12-15T10:59:55.248Z,10.98
2022-12-15T11:02:24.306Z,10.99
2022-12-15T11:04:51.808Z,11.01
2022-12-15T11:07:18.071Z,11.01
2022-12-15T11:09:44.807Z,11.00
2022-12-15T11:12:12.574Z,11.00
2022-12-15T11:14:38.970Z,11.00
2022-12-15T11:17:05.309Z,11.01
2022-12-15T11:19:31.794Z,11.02
2022-12-15T11:21:58.185Z,10.99
2022-12-15T11:24:24.643Z,10.99
2022-12-15T11:26:51.403Z,11.00
2022-12-15T11:29:17.762Z,10.99
2022-12-15T11:31:44.122Z,10.99
2022-12-15T11:36:46.725Z,11.01
2022-12-15T11:39:14.958Z,11.01
2022-12-15T11:41:41.275Z,11.00
2022-12-15T11:44:07.563Z,11.00
2022-12-15T11:46:33.874Z,11.01
2022-12-15T11:49:00.242Z,11.00
2022-12-15T11:51:26.535Z,11.01
2022-12-15T11:53:52.782Z,11.02
2022-12-15T11:56:19.089Z,11.03
2022-12-15T11:58:45.370Z,11.02
2022-12-15T12:01:15.075Z,11.04
2022-12-15T12:03:41.444Z,11.04
2022-12-15T12:06:07.801Z,11.03
2022-12-15T12:08:34.886Z,11.04
2022-12-15T12:11:01.508Z,11.06
2022-12-15T12:13:27.833Z,11.04
2022-12-15T12:15:54.292Z,11.06
2022-12-15T12:18:20.624Z,11.06
2022-12-15T12:20:46.915Z,11.06
2022-12-15T12:23:13.220Z,11.06
2022-12-15T12:25:39.506Z,11.06
2022-12-15T12:28:05.861Z,11.07
2022-12-15T12:30:32.179Z,11.06
2022-12-15T12:32:58.625Z,11.05
2022-12-15T12:35:31.899Z,11.08
2022-12-15T12:38:03.101Z,11.08
2022-12-15T12:40:30.122Z,11.09
2022-12-15T12:42:56.533Z,11.11
2022-12-15T12:45:22.966Z,11.13
2022-12-15T12:47:49.333Z,11.12
2022-12-15T12:50:16.679Z,11.13
2022-12-15T12:52:42.995Z,11.14
2022-12-15T12:57:55.540Z,11.09
2022-12-15T13:00:22.057Z,11.09
2022-12-15T13:02:48.495Z,11.05
2022-12-15T13:05:16.871Z,11.00
2022-12-15T13:07:43.232Z,11.05
2022-12-15T13:10:10.077Z,11.08
2022-12-15T13:12:52.921Z,11.08
2022-12-15T13:15:20.084Z,11.10
2022-12-15T13:17:46.499Z,11.16
2022-12-15T13:20:15.108Z,11.27
2022-12-15T13:22:41.455Z,11.32
2022-12-15T13:25:07.716Z,11.41
2022-12-15T13:27:34.009Z,11.43
2022-12-15T13:30:00.264Z,11.52
2022-12-15T13:32:26.754Z,11.59
2022-12-15T13:34:53.160Z,11.70
2022-12-15T13:37:19.421Z,11.78
2022-12-15T13:39:45.747Z,11.84
2022-12-15T13:42:33.394Z,11.93
2022-12-15T13:45:01.680Z,11.99
2022-12-15T13:47:28.119Z,12.08
2022-12-15T13:50:01.070Z,12.16
2022-12-15T13:53:08.045Z,12.24
2022-12-15T13:55:14.738Z,12.32
2022-12-15T13:57:41.172Z,12.37
2022-12-15T14:00:07.453Z,12.42
2022-12-15T14:02:33.922Z,12.51
2022-12-15T14:05:00.246Z,12.56
2022-12-15T14:07:26.544Z,12.61
2022-12-15T14:09:52.836Z,12.66
2022-12-15T14:12:19.183Z,12.67
2022-12-15T14:14:45.574Z,12.72
2022-12-15T14:17:15.216Z,12.75
2022-12-15T14:19:41.512Z,12.76
2022-12-15T14:22:07.855Z,12.80
2022-12-15T14:24:38.903Z,12.83
2022-12-15T14:27:06.056Z,12.84
2022-12-15T14:29:32.509Z,12.86
2022-12-15T14:31:59.046Z,12.92
2022-12-15T14:34:25.449Z,12.93
2022-12-15T14:36:51.895Z,12.96
2022-12-15T14:39:18.328Z,12.95
2022-12-15T14:41:44.691Z,12.98
2022-12-15T14:44:37.365Z,13.04
2022-12-15T14:47:01.841Z,13.10
2022-12-15T14:49:28.257Z,13.10
2022-12-15T14:51:54.829Z,13.09
2022-12-15T14:54:21.339Z,13.10
2022-12-15T14:56:47.672Z,13.12
2022-12-15T14:59:13.949Z,13.08
2022-12-15T15:01:40.530Z,13.13
2022-12-15T15:03:09.638Z,11.13
2022-12-15T15:04:06.886Z,13.14
2022-12-15T15:06:33.355Z,13.15
2022-12-15T15:08:59.701Z,13.14
2022-12-15T15:11:26.021Z,13.14
2022-12-15T15:13:52.316Z,13.19
2022-12-15T15:16:18.842Z,13.19
2022-12-15T15:18:45.590Z,13.16
2022-12-15T15:21:11.851Z,13.16
2022-12-15T15:23:38.196Z,13.19
2022-12-15T15:26:04.853Z,13.17
2022-12-15T15:28:31.618Z,13.17
2022-12-15T15:30:58.278Z,13.20
2022-12-15T15:33:24.598Z,13.19
2022-12-15T15:35:51.053Z,13.18
2022-12-15T15:38:17.562Z,13.18
2022-12-15T15:40:44.319Z,13.20
2022-12-15T15:43:10.648Z,13.19
2022-12-15T15:45:36.930Z,13.18
2022-12-15T15:48:03.661Z,13.18
2022-12-15T15:50:29.986Z,13.19
2022-12-15T15:52:56.321Z,13.19
2022-12-15T15:55:22.599Z,13.18
2022-12-15T15:57:49.170Z,13.19
2022-12-15T16:00:15.395Z,13.20
2022-12-15T16:02:42.059Z,13.20
2022-12-15T16:05:08.529Z,13.19
2022-12-15T16:07:35.085Z,13.19
2022-12-15T16:10:01.349Z,13.18
2022-12-15T16:12:27.621Z,13.19
2022-12-15T16:14:53.896Z,13.19
2022-12-15T16:17:20.236Z,13.18
2022-12-15T16:19:46.517Z,13.19
2022-12-15T16:22:13.016Z,13.20
2022-12-15T16:24:39.266Z,13.19
2022-12-15T16:27:05.852Z,13.19
2022-12-15T16:29:32.291Z,13.19
2022-12-15T16:31:58.651Z,13.18
2022-12-15T16:34:25.033Z,13.18
2022-12-15T16:36:51.313Z,13.18
2022-12-15T16:39:17.751Z,13.17
2022-12-15T16:41:44.027Z,13.15
2022-12-15T16:44:10.261Z,13.14
2022-12-15T16:46:36.761Z,13.12
2022-12-15T16:49:03.103Z,13.14
2022-12-15T16:51:29.486Z,13.12
2022-12-15T16:53:55.951Z,13.14
2022-12-15T16:56:22.204Z,13.17
2022-12-15T16:58:52.881Z,13.20
2022-12-15T17:01:23.722Z,13.22
2022-12-15T17:03:50.199Z,13.27
2022-12-15T17:06:16.563Z,13.35
2022-12-15T17:08:42.863Z,13.40
2022-12-15T17:11:09.364Z,13.43
2022-12-15T17:13:40.606Z,13.45
2022-12-15T17:16:10.063Z,13.47
2022-12-15T17:18:36.628Z,13.52
2022-12-15T17:21:02.993Z,13.54
2022-12-15T17:23:29.562Z,13.57
2022-12-15T17:28:42.600Z,13.61
2022-12-15T17:31:09.003Z,13.68
2022-12-15T17:33:35.726Z,13.67
2022-12-15T17:36:02.240Z,13.66
2022-12-15T17:38:28.574Z,13.67
2022-12-15T17:40:54.902Z,13.71
2022-12-15T17:43:21.520Z,13.70
2022-12-15T17:45:47.961Z,13.69
2022-12-15T17:48:14.545Z,13.68
2022-12-15T17:50:40.867Z,13.83
2022-12-15T17:55:42.951Z,14.25
2022-12-15T18:00:49.166Z,14.54
2022-12-15T18:03:15.984Z,14.72
2022-12-15T18:05:42.466Z,14.76
2022-12-15T18:08:08.767Z,14.83
2022-12-15T18:10:35.149Z,14.91
2022-12-15T18:13:01.443Z,15.03
2022-12-15T18:15:27.946Z,15.13
2022-12-15T18:17:54.239Z,15.27
2022-12-15T18:20:20.603Z,15.33
2022-12-15T18:22:47.128Z,15.49
2022-12-15T18:30:27.973Z,15.97
2022-12-15T18:32:54.290Z,16.10
2022-12-15T18:35:20.655Z,16.20
2022-12-15T18:37:47.162Z,16.37
2022-12-15T18:40:13.531Z,16.50
2022-12-15T18:42:40.004Z,16.66
2022-12-15T18:45:06.280Z,16.84
2022-12-15T18:47:32.695Z,17.03
2022-12-15T18:49:59.027Z,17.11
2022-12-15T18:52:30.035Z,17.29
2022-12-15T18:54:59.480Z,17.48
2022-12-15T18:57:27.727Z,17.59
2022-12-15T18:59:54.028Z,17.65
2022-12-15T19:02:20.573Z,17.74
2022-12-15T19:09:58.007Z,17.73
2022-12-15T19:12:24.310Z,17.76
2022-12-15T19:14:50.700Z,17.93
2022-12-15T19:17:17.014Z,18.05
2022-12-15T19:19:43.450Z,18.16
2022-12-15T19:22:09.896Z,18.23
2022-12-15T19:24:36.361Z,18.26
2022-12-15T19:27:02.887Z,18.27
2022-12-15T19:29:29.354Z,18.47
2022-12-15T19:31:55.750Z,18.47
2022-12-15T19:34:22.370Z,18.43
2022-12-15T19:42:00.028Z,18.69
2022-12-15T19:44:26.282Z,18.80
2022-12-15T19:46:52.617Z,18.95
2022-12-15T19:49:18.952Z,19.08
2022-12-15T19:51:45.319Z,19.14
2022-12-15T19:54:11.613Z,19.13
2022-12-15T19:56:38.289Z,18.93
2022-12-15T20:04:24.170Z,18.94
2022-12-15T20:06:50.903Z,19.07
2022-12-15T20:14:32.046Z,19.36
2022-12-15T20:16:58.604Z,19.39
2022-12-15T20:19:24.917Z,19.45
2022-12-15T20:21:51.234Z,19.52
2022-12-15T20:24:17.488Z,19.55
2022-12-15T20:26:43.901Z,19.52
2022-12-15T20:29:10.254Z,19.52
2022-12-15T20:31:36.652Z,19.41
2022-12-15T20:34:03.020Z,19.36
2022-12-15T20:36:29.323Z,19.26
2022-12-15T20:38:55.576Z,19.28
2022-12-15T20:41:21.840Z,19.25
2022-12-15T20:43:48.216Z,19.26
2022-12-15T20:46:14.603Z,19.19
2022-12-15T20:48:40.955Z,18.92
2022-12-15T20:51:09.658Z,18.70
2022-12-15T20:58:54.063Z,18.49
2022-12-15T21:01:20.533Z,18.69
2022-12-15T21:03:47.035Z,18.79
2022-12-15T21:06:13.504Z,18.69
2022-12-15T21:08:39.864Z,18.69
2022-12-15T21:11:06.142Z,18.72
2022-12-15T21:13:32.793Z,18.67
2022-12-15T21:15:59.493Z,18.66
2022-12-15T21:19:18.131Z,18.61
2022-12-15T21:21:12.116Z,18.54
2022-12-15T21:23:42.578Z,18.48
2022-12-15T21:26:09.179Z,18.43
2022-12-15T21:28:35.723Z,18.37
2022-12-15T21:31:02.182Z,18.27
2022-12-15T21:33:28.811Z,18.22
2022-12-15T21:35:55.130Z,18.20
2022-12-15T21:38:21.616Z,18.14
2022-12-15T21:40:47.865Z,18.12
2022-12-15T21:43:14.541Z,18.09
2022-12-15T21:45:41.182Z,18.03
2022-12-15T21:48:07.521Z,17.96
2022-12-15T21:50:33.784Z,17.93
2022-12-15T21:53:00.098Z,17.89
2022-12-15T21:55:26.323Z,17.87
2022-12-15T21:57:52.588Z,17.83
2022-12-15T22:00:18.971Z,17.79
2022-12-15T22:02:45.348Z,17.76
2022-12-15T22:05:11.636Z,17.76
2022-12-15T22:07:38.006Z,17.52
2022-12-15T22:10:04.600Z,17.19
2022-12-15T22:12:31.040Z,17.04
2022-12-15T22:14:57.404Z,16.98
2022-12-15T22:17:23.719Z,16.97
2022-12-15T22:19:50.446Z,16.91
2022-12-15T22:22:17.867Z,16.91
2022-12-15T22:24:44.299Z,16.94
2022-12-15T22:27:10.589Z,16.90
2022-12-15T22:29:38.639Z,16.88
2022-12-15T22:32:05.491Z,16.86
2022-12-15T22:34:31.928Z,16.88
2022-12-15T22:36:58.164Z,16.80
2022-12-15T22:39:24.551Z,16.77
2022-12-15T22:41:50.927Z,16.77
2022-12-15T22:44:17.548Z,16.76
2022-12-15T22:46:44.255Z,16.74
2022-12-15T22:49:10.628Z,16.73
2022-12-15T22:51:36.996Z,16.71
2022-12-15T22:54:03.345Z,16.69
2022-12-15T22:56:29.587Z,16.65
2022-12-15T22:58:55.834Z,16.64
2022-12-15T23:01:22.154Z,16.61
2022-12-15T23:03:48.548Z,16.58
2022-12-15T23:06:14.866Z,16.56
2022-12-15T23:08:41.315Z,16.55
2022-12-15T23:11:07.580Z,16.55
2022-12-15T23:13:34.485Z,16.50
2022-12-15T23:16:01.015Z,16.49
2022-12-15T23:18:27.471Z,16.47
2022-12-15T23:20:53.721Z,16.45
2022-12-15T23:23:20.954Z,16.44
2022-12-15T23:25:47.406Z,16.42
2022-12-15T23:28:13.876Z,16.36
2022-12-15T23:30:40.183Z,16.34
2022-12-15T23:33:06.596Z,16.31
2022-12-15T23:35:32.884Z,16.29
2022-12-15T23:37:59.305Z,16.25
2022-12-15T23:40:25.612Z,16.19
2022-12-15T23:42:51.962Z,16.15
2022-12-15T23:45:18.554Z,16.13
2022-12-15T23:47:45.219Z,16.09
2022-12-15T23:50:11.667Z,16.07
2022-12-15T23:52:38.164Z,16.00
2022-12-15T23:55:04.498Z,15.95
2022-12-15T23:57:30.980Z,15.91
2022-12-15T23:59:57.651Z,15.88
